Darstellungsparameter: Aktuell verwendete Einstellungen:
Skalierung der Graphiken ... ?
xyx+y,   Skalierungsfaktor:      Skalierung: Modus: x, Faktor: 1
Darstellungszeitraum ... ?
Vom - - bis: - -   Zeitraum: 25.12.2010 - 26.12.2010
Min/Max/Avg-Anzeige ... ?
Zeige MMA aktuell
Zeige MMA Monat
Zeige MMA alles
Zeige --A aktuell
Zeige --A Monat
Zeige --A alles
Keine MMA-Anzeige
MMA:
Average (ber die Originaldaten)
MMA-Basis: 25.12.2010 - 26.12.2010
Quicknavigation für Darstellung... ?
Tage:      1T, 2T, 3T, 5T -1T -2T -3T -5T +1T +2T +3T +5T
Wochen: 1W, 2W, 3W -1W -2W -3W +1W +2W +3W
Monate: 1M, 3M, 6M -1M -3M -6M +1M +3M +6M
Jahre:    1J, 3J, 5J, 10J -1J -3J -5J -10J +1J +3J +5J +10J
Nutze für die Darstellung ... ?
Originaldaten oder Mittelwerte auf ...
Stundenbasis Tagesbasis Wochenbasis
Monatsbasis Jahresbasis      Datenbasis: Original-Daten
Darstellen als:
Statistik (Auto) Statistik J:M      Darstellung:
Zur Graphik,    zurück zur Übersicht aller Sensoren.
 
Tabellarische Datenbersicht: ?
 
Sensor: Nr:Datum:Temp:Abs-Feuchte:Windchill:Wind:
Aussen-T/F 1 25-12-2010 00:08:02 -3.8 C 2.97 g/m*3 -3.8 C 0 km/h
2 25-12-2010 00:20:02 -3.8 C 2.97 g/m*3 -3.8 C 0 km/h
3 25-12-2010 00:32:02 -3.8 C 2.97 g/m*3 -3.8 C 0 km/h
4 25-12-2010 00:44:03 -3.8 C 2.93 g/m*3 -3.8 C 0 km/h
5 25-12-2010 00:56:03 -3.9 C 2.87 g/m*3 -3.9 C 0 km/h
6 25-12-2010 01:08:03 -3.9 C 2.87 g/m*3 -3.9 C 0 km/h
7 25-12-2010 01:20:03 -3.9 C 2.87 g/m*3 -3.9 C 0 km/h
8 25-12-2010 01:32:03 -3.9 C 2.87 g/m*3 -3.9 C 0 km/h
9 25-12-2010 01:44:03 -3.9 C 2.87 g/m*3 -3.9 C 0 km/h
10 25-12-2010 01:56:03 -4 C 2.89 g/m*3 -4 C 0 km/h
11 25-12-2010 02:08:03 -4.1 C 2.87 g/m*3 -4.1 C 0 km/h
12 25-12-2010 02:20:03 -4.1 C 2.91 g/m*3 -4.1 C 0 km/h
13 25-12-2010 02:32:03 -4.1 C 2.87 g/m*3 -4.1 C 0 km/h
14 25-12-2010 02:44:03 -4.1 C 2.87 g/m*3 -4.1 C 0 km/h
15 25-12-2010 02:56:03 -4 C 2.85 g/m*3 -4 C 0 km/h
16 25-12-2010 03:08:03 -4.1 C 2.83 g/m*3 -4.1 C 0 km/h
17 25-12-2010 03:20:03 -4.1 C 2.83 g/m*3 -4.1 C 0 km/h
18 25-12-2010 03:32:03 -4.2 C 2.81 g/m*3 -4.2 C 0 km/h
19 25-12-2010 03:44:03 -4.2 C 2.81 g/m*3 -4.2 C 0 km/h
20 25-12-2010 03:56:03 -4.2 C 2.78 g/m*3 -4.2 C 0 km/h
21 25-12-2010 04:08:03 -4.2 C 2.74 g/m*3 -4.2 C 0 km/h
22 25-12-2010 04:20:03 -4.2 C 2.7 g/m*3 -4.2 C 0 km/h
23 25-12-2010 04:32:03 -4.2 C 2.67 g/m*3 -4.2 C 0 km/h
24 25-12-2010 04:44:03 -4.3 C 2.65 g/m*3 -4.3 C 0 km/h
25 25-12-2010 04:56:04 -4.4 C 2.63 g/m*3 -4.4 C 0 km/h
Sensor: Nr:Datum:Temp:Abs-Feuchte:Windchill:Wind:
Aussen-T/F 26 25-12-2010 05:08:04 -4.4 C 2.63 g/m*3 -4.4 C 0 km/h
27 25-12-2010 05:20:04 -4.4 C 2.6 g/m*3 -4.4 C 0 km/h
28 25-12-2010 05:32:04 -4.5 C 2.58 g/m*3 -4.5 C 0 km/h
29 25-12-2010 05:44:04 -4.5 C 2.58 g/m*3 -4.5 C 0 km/h
30 25-12-2010 05:56:04 -4.5 C 2.54 g/m*3 -4.5 C 0 km/h
31 25-12-2010 06:08:04 -4.6 C 2.52 g/m*3 -4.6 C 0 km/h
32 25-12-2010 06:20:04 -4.6 C 2.52 g/m*3 -4.6 C 0 km/h
33 25-12-2010 06:32:04 -4.6 C 2.52 g/m*3 -4.6 C 0 km/h
34 25-12-2010 06:44:04 -4.6 C 2.52 g/m*3 -4.6 C 0 km/h
35 25-12-2010 06:56:04 -4.7 C 2.47 g/m*3 -4.7 C 0 km/h
36 25-12-2010 07:08:04 -4.7 C 2.44 g/m*3 -4.7 C 0 km/h
37 25-12-2010 07:20:04 -4.7 C 2.44 g/m*3 -4.7 C 0 km/h
38 25-12-2010 07:32:04 -4.7 C 2.44 g/m*3 -4.7 C 0 km/h
39 25-12-2010 07:44:04 -4.7 C 2.47 g/m*3 -4.7 C 0 km/h
40 25-12-2010 07:56:04 -4.8 C 2.45 g/m*3 -4.8 C 0 km/h
41 25-12-2010 08:08:04 -4.7 C 2.47 g/m*3 -4.7 C 0 km/h
42 25-12-2010 08:20:04 -4.7 C 2.47 g/m*3 -4.7 C 0 km/h
43 25-12-2010 08:32:04 -4.8 C 2.49 g/m*3 -4.8 C 0 km/h
44 25-12-2010 08:44:04 -4.9 C 2.47 g/m*3 -4.9 C 0 km/h
45 25-12-2010 08:56:05 -4.9 C 2.47 g/m*3 -4.9 C 0 km/h
46 25-12-2010 09:08:05 -4.9 C 2.43 g/m*3 -4.9 C 0 km/h
47 25-12-2010 09:20:05 -4.8 C 2.45 g/m*3 -4.8 C 0 km/h
48 25-12-2010 09:32:02 -4.9 C 2.43 g/m*3 -4.9 C 0 km/h
49 25-12-2010 09:44:02 -4.8 C 2.42 g/m*3 -4.8 C 0 km/h
50 25-12-2010 09:56:02 -4.7 C 2.44 g/m*3 -4.7 C 0 km/h
Sensor: Nr:Datum:Temp:Abs-Feuchte:Windchill:Wind:
Aussen-T/F 51 25-12-2010 10:08:02 -4.7 C 2.4 g/m*3 -4.7 C 0 km/h
52 25-12-2010 10:20:02 -4.7 C 2.37 g/m*3 -4.7 C 0 km/h
53 25-12-2010 10:32:02 -4.7 C 2.33 g/m*3 -4.7 C 0 km/h
54 25-12-2010 10:44:02 -4.6 C 2.31 g/m*3 -4.6 C 0 km/h
55 25-12-2010 10:56:02 -4.2 C 2.38 g/m*3 -4.2 C 0 km/h
56 25-12-2010 11:08:02 -4.5 C 2.29 g/m*3 -4.5 C 0 km/h
57 25-12-2010 11:20:03 -4.1 C 2.29 g/m*3 -4.1 C 0 km/h
58 25-12-2010 11:32:02 -4.3 C 2.18 g/m*3 -4.3 C 0 km/h
59 25-12-2010 11:44:02 -4.9 C 2.06 g/m*3 -4.9 C 0 km/h
60 25-12-2010 11:56:03 -4.7 C 2.09 g/m*3 -4.7 C 0 km/h
61 25-12-2010 12:08:02 -4.9 C 2.06 g/m*3 -4.9 C 0 km/h
62 25-12-2010 12:20:02 -5.2 C 2.01 g/m*3 -5.2 C 0 km/h
63 25-12-2010 12:32:02 -4.9 C 2.09 g/m*3 -4.9 C 0 km/h
64 25-12-2010 12:44:02 -4.9 C 2.09 g/m*3 -4.9 C 0 km/h
65 25-12-2010 12:56:02 -5 C 2.08 g/m*3 -5 C 0 km/h
66 25-12-2010 13:08:02 -4.6 C 2.17 g/m*3 -4.6 C 0 km/h
67 25-12-2010 13:20:02 -4.5 C 2.19 g/m*3 -4.5 C 0 km/h
68 25-12-2010 13:32:02 -4.7 C 2.19 g/m*3 -4.7 C 0 km/h
69 25-12-2010 13:44:02 -5.1 C 2.13 g/m*3 -5.1 C 0 km/h
70 25-12-2010 13:56:02 -4.7 C 2.23 g/m*3 -4.7 C 0 km/h
71 25-12-2010 14:08:01 -5 C 2.11 g/m*3 -5 C 0 km/h
72 25-12-2010 14:20:02 -4.9 C 2.13 g/m*3 -4.9 C 0 km/h
73 25-12-2010 14:32:02 -4.9 C 2.09 g/m*3 -4.9 C 0 km/h
74 25-12-2010 14:44:02 -4.8 C 2.11 g/m*3 -4.8 C 0 km/h
75 25-12-2010 14:56:02 -5 C 2.08 g/m*3 -5 C 0 km/h
Sensor: Nr:Datum:Temp:Abs-Feuchte:Windchill:Wind:
Aussen-T/F 76 25-12-2010 15:08:02 -5 C 2.11 g/m*3 -5 C 0 km/h
77 25-12-2010 15:20:02 -5.4 C 2.05 g/m*3 -5.4 C 0 km/h
78 25-12-2010 15:32:02 -5.6 C 2.05 g/m*3 -5.6 C 0 km/h
79 25-12-2010 15:44:02 -5.7 C 2.1 g/m*3 -5.7 C 0 km/h
80 25-12-2010 15:56:01 -6 C 2.12 g/m*3 -6 C 0 km/h
81 25-12-2010 16:08:02 -6.4 C 2.12 g/m*3 -6.4 C 0 km/h
82 25-12-2010 16:20:01 -6.7 C 2.11 g/m*3 -6.7 C 0 km/h
83 25-12-2010 16:32:01 -6.8 C 2.12 g/m*3 -6.8 C 0 km/h
84 25-12-2010 16:44:01 -7.3 C 2.07 g/m*3 -7.3 C 0 km/h
85 25-12-2010 16:56:01 -6.9 C 2.19 g/m*3 -6.9 C 0 km/h
86 25-12-2010 17:08:01 -7.4 C 2.12 g/m*3 -7.4 C 0 km/h
87 25-12-2010 17:20:02 -7.6 C 2.11 g/m*3 -7.6 C 0 km/h
88 25-12-2010 17:32:01 -7.8 C 2.08 g/m*3 -7.8 C 0 km/h
89 25-12-2010 17:44:01 -7.3 C 2.19 g/m*3 -7.3 C 0 km/h
90 25-12-2010 17:56:02 -7.5 C 2.13 g/m*3 -7.5 C 0 km/h
91 25-12-2010 18:08:01 -7.6 C 2.14 g/m*3 -7.6 C 0 km/h
92 25-12-2010 18:20:02 -7.5 C 2.16 g/m*3 -7.5 C 0 km/h
93 25-12-2010 18:32:01 -7.4 C 2.2 g/m*3 -7.4 C 0 km/h
94 25-12-2010 18:44:01 -7.4 C 2.17 g/m*3 -7.4 C 0 km/h
95 25-12-2010 18:56:02 -7.4 C 2.17 g/m*3 -7.4 C 0 km/h
96 25-12-2010 19:08:02 -7.4 C 2.17 g/m*3 -7.4 C 0 km/h
97 25-12-2010 19:20:02 -7.4 C 2.17 g/m*3 -7.4 C 0 km/h
98 25-12-2010 19:32:03 -7.4 C 2.17 g/m*3 -7.4 C 0 km/h
99 25-12-2010 19:44:03 -7.4 C 2.17 g/m*3 -7.4 C 0 km/h
100 25-12-2010 19:56:02 -7.4 C 2.17 g/m*3 -7.4 C 0 km/h
Sensor: Nr:Datum:Temp:Abs-Feuchte:Windchill:Wind:
Aussen-T/F 101 25-12-2010 20:08:01 -7.4 C 2.17 g/m*3 -7.4 C 0 km/h
102 25-12-2010 20:20:02 -8.8 C 2.04 g/m*3 -8.8 C 0 km/h
103 25-12-2010 20:32:02 -9.2 C 1.98 g/m*3 -9.2 C 0 km/h
104 25-12-2010 20:44:02 -8.6 C 2.09 g/m*3 -8.6 C 0 km/h
105 25-12-2010 20:56:02 -7.7 C 2.26 g/m*3 -7.7 C 0 km/h
106 25-12-2010 21:08:02 -7.6 C 2.31 g/m*3 -7.6 C 0 km/h
107 25-12-2010 21:20:02 -7.7 C 2.26 g/m*3 -7.7 C 0 km/h
108 25-12-2010 21:32:02 -7.6 C 2.28 g/m*3 -7.6 C 0 km/h
109 25-12-2010 21:44:02 -7.2 C 2.35 g/m*3 -7.2 C 0 km/h
110 25-12-2010 21:56:01 -6.9 C 2.37 g/m*3 -6.9 C 0 km/h
111 25-12-2010 22:08:02 -6.8 C 2.36 g/m*3 -6.8 C 0 km/h
112 25-12-2010 22:20:01 -6.9 C 2.31 g/m*3 -6.9 C 0 km/h
113 25-12-2010 22:32:01 -6.8 C 2.33 g/m*3 -6.8 C 0 km/h
114 25-12-2010 22:44:01 -6.8 C 2.27 g/m*3 -6.8 C 0 km/h
115 25-12-2010 22:56:01 -6.7 C 2.26 g/m*3 -6.7 C 0 km/h
116 25-12-2010 23:08:02 -6.8 C 2.18 g/m*3 -6.8 C 0 km/h
117 25-12-2010 23:20:02 -6.8 C 2.18 g/m*3 -6.8 C 0 km/h
118 25-12-2010 23:32:01 -6.9 C 2.16 g/m*3 -6.9 C 0 km/h
119 25-12-2010 23:44:01 -6.8 C 2.18 g/m*3 -6.8 C 0 km/h
120 25-12-2010 23:56:02 -6.8 C 2.18 g/m*3 -6.8 C 0 km/h
121 26-12-2010 00:08:01 -6.8 C 2.18 g/m*3 -6.8 C 0 km/h
122 26-12-2010 00:20:01 -6.9 C 2.16 g/m*3 -6.9 C 0 km/h
123 26-12-2010 00:32:01 -7 C 2.12 g/m*3 -7 C 0 km/h
124 26-12-2010 00:44:01 -7.3 C 2.07 g/m*3 -7.3 C 0 km/h
125 26-12-2010 00:56:01 -7.4 C 2.09 g/m*3 -7.4 C 0 km/h
Sensor: Nr:Datum:Temp:Abs-Feuchte:Windchill:Wind:
Aussen-T/F 126 26-12-2010 01:08:02 -7.8 C 2 g/m*3 -7.8 C 0 km/h
127 26-12-2010 01:20:02 -7.9 C 2.01 g/m*3 -7.9 C 0 km/h
128 26-12-2010 01:32:01 -8 C 2 g/m*3 -8 C 0 km/h
129 26-12-2010 01:44:01 -8.2 C 1.97 g/m*3 -8.2 C 0 km/h
130 26-12-2010 01:56:01 -8.1 C 1.98 g/m*3 -8.1 C 0 km/h
131 26-12-2010 02:08:01 -8.6 C 1.88 g/m*3 -8.6 C 0 km/h
132 26-12-2010 02:20:02 -8.7 C 1.9 g/m*3 -8.7 C 0 km/h
133 26-12-2010 02:32:01 -8.8 C 1.88 g/m*3 -8.8 C 0 km/h
134 26-12-2010 02:44:01 -8.9 C 1.87 g/m*3 -8.9 C 0 km/h
135 26-12-2010 02:57:05 -8.9 C 1.87 g/m*3 -8.9 C 0 km/h
136 26-12-2010 03:09:05 -9 C 1.83 g/m*3 -9 C 0 km/h
137 26-12-2010 03:21:04 -9.1 C 1.81 g/m*3 -9.1 C 0 km/h
138 26-12-2010 03:33:02 -9.1 C 1.81 g/m*3 -9.1 C 0 km/h
139 26-12-2010 03:45:02 -9 C 1.83 g/m*3 -9 C 0 km/h
140 26-12-2010 03:57:02 -9 C 1.83 g/m*3 -9 C 0 km/h
141 26-12-2010 04:09:02 -9 C 1.83 g/m*3 -9 C 0 km/h
142 26-12-2010 04:21:02 -9.2 C 1.83 g/m*3 -9.2 C 0 km/h
143 26-12-2010 04:33:02 -9.1 C 1.86 g/m*3 -9.1 C 0 km/h
144 26-12-2010 04:45:02 -8.9 C 1.89 g/m*3 -8.9 C 0 km/h
145 26-12-2010 04:57:02 -9 C 1.85 g/m*3 -9 C 0 km/h
146 26-12-2010 05:09:02 -8.8 C 1.91 g/m*3 -8.8 C 0 km/h
147 26-12-2010 05:21:02 -8.6 C 1.91 g/m*3 -8.6 C 0 km/h
148 26-12-2010 05:33:02 -8.6 C 1.91 g/m*3 -8.6 C 0 km/h
149 26-12-2010 05:45:02 -8.2 C 1.97 g/m*3 -8.2 C 0 km/h
150 26-12-2010 05:57:02 -8 C 2.02 g/m*3 -8 C 0 km/h
Sensor: Nr:Datum:Temp:Abs-Feuchte:Windchill:Wind:
Aussen-T/F 151 26-12-2010 06:09:02 -7.6 C 2.06 g/m*3 -7.6 C 0 km/h
152 26-12-2010 06:21:02 -7.4 C 2.09 g/m*3 -7.4 C 0 km/h
153 26-12-2010 06:33:01 -7.3 C 2.1 g/m*3 -7.3 C 0 km/h
154 26-12-2010 06:45:02 -7 C 2.15 g/m*3 -7 C 0 km/h
155 26-12-2010 06:57:02 -6.9 C 2.16 g/m*3 -6.9 C 0 km/h
156 26-12-2010 07:09:01 -6.7 C 2.2 g/m*3 -6.7 C 0 km/h
157 26-12-2010 07:21:01 -6.4 C 2.25 g/m*3 -6.4 C 0 km/h
158 26-12-2010 07:33:02 -6.2 C 2.28 g/m*3 -6.2 C 0 km/h
159 26-12-2010 07:45:02 -6.2 C 2.25 g/m*3 -6.2 C 0 km/h
160 26-12-2010 07:57:02 -6.2 C 2.25 g/m*3 -6.2 C 0 km/h
161 26-12-2010 08:09:02 -6.1 C 2.3 g/m*3 -6.1 C 0 km/h
162 26-12-2010 08:21:02 -5.9 C 2.36 g/m*3 -5.9 C 0 km/h
163 26-12-2010 08:33:02 -5.8 C 2.35 g/m*3 -5.8 C 0 km/h
164 26-12-2010 08:45:02 -5.8 C 2.38 g/m*3 -5.8 C 0 km/h
165 26-12-2010 08:57:02 -5.6 C 2.45 g/m*3 -5.6 C 0 km/h
166 26-12-2010 09:09:02 -5.4 C 2.51 g/m*3 -5.4 C 0 km/h
167 26-12-2010 09:21:02 -5.2 C 2.55 g/m*3 -5.2 C 0 km/h
168 26-12-2010 09:33:02 -4.7 C 2.64 g/m*3 -4.7 C 0 km/h
169 26-12-2010 09:45:02 -4.6 C 2.63 g/m*3 -4.6 C 0 km/h
170 26-12-2010 09:57:02 -4.5 C 2.65 g/m*3 -4.5 C 0 km/h
171 26-12-2010 10:09:02 -4.5 C 2.65 g/m*3 -4.5 C 0 km/h
172 26-12-2010 10:21:02 -4.4 C 2.67 g/m*3 -4.4 C 0 km/h
173 26-12-2010 10:33:02 -4.4 C 2.67 g/m*3 -4.4 C 0 km/h
174 26-12-2010 10:45:02 -4.1 C 2.69 g/m*3 -4.1 C 0 km/h
175 26-12-2010 10:57:02 -3.8 C 2.71 g/m*3 -3.8 C 0 km/h
Sensor: Nr:Datum:Temp:Abs-Feuchte:Windchill:Wind:
Aussen-T/F 176 26-12-2010 11:09:03 -3.6 C 2.71 g/m*3 -3.6 C 0 km/h
177 26-12-2010 11:21:02 -3.5 C 2.69 g/m*3 -3.5 C 0 km/h
178 26-12-2010 11:33:02 -3.7 C 2.65 g/m*3 -3.7 C 0 km/h
179 26-12-2010 11:45:02 -3.5 C 2.69 g/m*3 -3.5 C 0 km/h
180 26-12-2010 11:57:02 -3.3 C 2.69 g/m*3 -3.3 C 0 km/h
181 26-12-2010 12:09:02 -3.4 C 2.71 g/m*3 -3.4 C 0 km/h
182 26-12-2010 12:21:02 -3.3 C 2.73 g/m*3 -3.3 C 0 km/h
183 26-12-2010 12:33:01 -3 C 2.83 g/m*3 -3 C 0 km/h
184 26-12-2010 12:45:02 -3.1 C 2.81 g/m*3 -3.1 C 0 km/h
185 26-12-2010 12:57:03 -2.9 C 2.85 g/m*3 -2.9 C 0 km/h
186 26-12-2010 13:09:01 -2.8 C 2.87 g/m*3 -2.8 C 0 km/h
187 26-12-2010 13:21:01 -2.6 C 2.87 g/m*3 -2.6 C 0 km/h
188 26-12-2010 13:33:02 -2.7 C 2.81 g/m*3 -2.7 C 0 km/h
189 26-12-2010 13:45:02 -2.8 C 2.83 g/m*3 -2.8 C 0 km/h
190 26-12-2010 13:57:02 -2.7 C 2.89 g/m*3 -2.7 C 0 km/h
191 26-12-2010 14:09:02 -2.8 C 2.91 g/m*3 -2.8 C 0 km/h
192 26-12-2010 14:21:01 -2.7 C 2.97 g/m*3 -2.7 C 0 km/h
193 26-12-2010 14:33:02 -2.4 C 3.07 g/m*3 -2.4 C 0 km/h
194 26-12-2010 14:45:02 -2.7 C 3.01 g/m*3 -2.7 C 0 km/h
195 26-12-2010 14:57:02 -2.7 C 3.05 g/m*3 -2.7 C 0 km/h
196 26-12-2010 15:09:02 -2.6 C 3.11 g/m*3 -2.6 C 0 km/h
197 26-12-2010 15:21:02 -2.6 C 3.15 g/m*3 -2.6 C 0 km/h
198 26-12-2010 15:33:02 -2.8 C 3.11 g/m*3 -2.8 C 0 km/h
199 26-12-2010 15:45:02 -2.8 C 3.15 g/m*3 -2.8 C 0 km/h
200 26-12-2010 15:57:02 -2.8 C 3.15 g/m*3 -2.8 C 0 km/h
Sensor: Nr:Datum:Temp:Abs-Feuchte:Windchill:Wind:
Aussen-T/F 201 26-12-2010 16:09:02 -2.8 C 3.15 g/m*3 -2.8 C 0 km/h
202 26-12-2010 16:21:02 -2.8 C 3.15 g/m*3 -2.8 C 0 km/h
203 26-12-2010 16:33:02 -2.9 C 3.16 g/m*3 -2.9 C 0 km/h
204 26-12-2010 16:45:02 -2.9 C 3.16 g/m*3 -2.9 C 0 km/h
205 26-12-2010 16:57:02 -2.9 C 3.16 g/m*3 -2.9 C 0 km/h
206 26-12-2010 17:09:02 -2.8 C 3.19 g/m*3 -2.8 C 0 km/h
207 26-12-2010 17:21:02 -2.7 C 3.17 g/m*3 -2.7 C 0 km/h
208 26-12-2010 17:33:02 -2.8 C 3.15 g/m*3 -2.8 C 0 km/h
209 26-12-2010 17:45:02 -2.9 C 3.16 g/m*3 -2.9 C 0 km/h
210 26-12-2010 17:57:02 -2.9 C 3.16 g/m*3 -2.9 C 0 km/h
211 26-12-2010 18:09:01 -3.2 C 3.1 g/m*3 -3.2 C 0 km/h
212 26-12-2010 18:21:02 -3.1 C 3.16 g/m*3 -3.1 C 0 km/h
213 26-12-2010 18:33:01 -2.8 C 3.23 g/m*3 -2.8 C 0 km/h
214 26-12-2010 18:45:02 -2.7 C 3.21 g/m*3 -2.7 C 0 km/h
215 26-12-2010 18:57:03 -2.7 C 3.17 g/m*3 -2.7 C 0 km/h
216 26-12-2010 19:09:01 -2.8 C 3.15 g/m*3 -2.8 C 0 km/h
217 26-12-2010 19:21:01 -2.7 C 3.17 g/m*3 -2.7 C 0 km/h
218 26-12-2010 19:33:02 -2.7 C 3.17 g/m*3 -2.7 C 0 km/h
219 26-12-2010 19:45:02 -2.7 C 3.21 g/m*3 -2.7 C 0 km/h
220 26-12-2010 19:57:02 -2.7 C 3.21 g/m*3 -2.7 C 0 km/h
221 26-12-2010 20:09:02 -3 C 3.14 g/m*3 -3 C 0 km/h
222 26-12-2010 20:21:02 -3.5 C 3.03 g/m*3 -3.5 C 0 km/h
223 26-12-2010 20:33:02 -2.9 C 3.24 g/m*3 -2.9 C 0 km/h
224 26-12-2010 20:45:02 -2.8 C 3.23 g/m*3 -2.8 C 0 km/h
225 26-12-2010 20:57:02 -3 C 3.14 g/m*3 -3 C 0 km/h
Sensor: Nr:Datum:Temp:Abs-Feuchte:Windchill:Wind:
Aussen-T/F 226 26-12-2010 21:09:02 -3.5 C 3.03 g/m*3 -3.5 C 0 km/h
227 26-12-2010 21:21:02 -3 C 3.18 g/m*3 -3 C 0 km/h
228 26-12-2010 21:33:02 -3 C 3.14 g/m*3 -3 C 0 km/h
229 26-12-2010 21:45:02 -3.5 C 3.03 g/m*3 -3.5 C 0 km/h
230 26-12-2010 21:57:02 -3.5 C 3.03 g/m*3 -3.5 C 0 km/h
231 26-12-2010 22:09:02 -3.2 C 3.14 g/m*3 -3.2 C 0 km/h
232 26-12-2010 22:22:04 -3 C 3.14 g/m*3 -3 C 0 km/h
233 26-12-2010 22:34:04 -3 C 3.1 g/m*3 -3 C 0 km/h
234 26-12-2010 22:46:04 -2.9 C 3.13 g/m*3 -2.9 C 0 km/h
235 26-12-2010 22:58:04 -3.1 C 3.12 g/m*3 -3.1 C 0 km/h
236 26-12-2010 23:10:04 -3.1 C 3.12 g/m*3 -3.1 C 0 km/h
237 26-12-2010 23:22:04 -2.8 C 3.19 g/m*3 -2.8 C 0 km/h
238 26-12-2010 23:34:04 -2.6 C 3.19 g/m*3 -2.6 C 0 km/h
239 26-12-2010 23:46:04 -2.5 C 3.21 g/m*3 -2.5 C 0 km/h
240 26-12-2010 23:58:04 -2.6 C 3.19 g/m*3 -2.6 C 0 km/h

Legende:
   Min
   Max


Maximal/Minimal-Werte vom 25.12.2010 - 26.12.2010

Sensor Min Max Avg
Temp
(Aussen-T/F)
-9.2 °C
25-12-2010  20:32:02
-2.4 °C
26-12-2010  14:33:02
-5.18 °C
Abs-Feuchte
(Aussen-T/F)
1.81 g/m*3
26-12-2010  03:21:04
3.24 g/m*3
26-12-2010  20:33:02
2.5 g/m*3
Windchill
(Aussen-T/F)
-9.2 C
25-12-2010  20:32:02
-2.4 C
26-12-2010  14:33:02
-5.16 C

Die Daten stammen von einer Davis Vantage Pro 2 Wetter-Station und werden unter Linux mit der Software wview2wettercgi und aufbereitet. Alle Angaben erfolgen ohne Gewähr für ihre Vollständigkeit oder Richtigkeit.
Kontakt: Rainer Krienke krienke@uni-koblenz.de . Meine Webseiten an der Uni Koblenz oder privat.
Version: $Revision: 0.78 $